Time;durP1;ratioP1;P1;durP2;ratioP2;P2;SDS_P1;SDS_P2;PMS_P1;PMS_P2;Temp;Humidity;BMP_temperature;BMP_pressure;BME280_temperature;BME280_humidity;BME280_pressure;Samples;Min_cycle;Max_cycle;Signal;HPM_P1;HPM_P2
2022/09/24 00:01:32;;;;;;;9.67;7.50;;;17.40;66.20;;;;;;4977501;28;20043;-55
2022/09/24 00:04:03;;;;;;;8.73;7.15;;;17.30;66.00;;;;;;4983682;28;20054;-54
2022/09/24 00:06:37;;;;;;;9.68;6.88;;;17.30;66.00;;;;;;4993093;28;20056;-55
2022/09/24 00:09:04;;;;;;;9.82;6.93;;;17.30;66.30;;;;;;4980785;28;20118;-54
2022/09/24 00:11:31;;;;;;;7.68;6.45;;;17.30;66.00;;;;;;4982749;28;20050;-54
2022/09/24 00:14:01;;;;;;;6.88;6.25;;;17.30;66.20;;;;;;4984713;28;20038;-52
2022/09/24 00:16:30;;;;;;;7.45;5.95;;;17.20;66.20;;;;;;4984374;28;20149;-54
2022/09/24 00:19:01;;;;;;;6.43;5.70;;;17.20;66.20;;;;;;4978345;28;20066;-54
2022/09/24 00:21:38;;;;;;;10.48;6.90;;;17.20;66.30;;;;;;4976888;28;20053;-55
2022/09/24 00:24:09;;;;;;;8.82;6.25;;;17.20;66.90;;;;;;4975982;28;20045;-54
2022/09/24 00:26:57;;;;;;;9.13;6.93;;;17.20;66.40;;;;;;4973058;28;20091;-54
2022/09/24 00:29:23;;;;;;;7.20;5.65;;;17.10;66.30;;;;;;4978697;28;20557;-52
2022/09/24 00:31:52;;;;;;;7.80;6.68;;;17.20;66.30;;;;;;4983750;28;20118;-50
2022/09/24 00:34:19;;;;;;;7.70;6.88;;;17.10;66.30;;;;;;4981518;28;20047;-54
2022/09/24 00:36:47;;;;;;;8.93;6.90;;;17.10;66.40;;;;;;4973549;28;20486;-52
2022/09/24 00:39:14;;;;;;;9.32;7.03;;;17.10;66.40;;;;;;4986348;28;20042;-49
2022/09/24 00:41:46;;;;;;;10.13;7.68;;;17.10;66.40;;;;;;4976460;28;20044;-51
2022/09/24 00:44:41;;;;;;;8.48;7.20;;;17.00;66.50;;;;;;4981326;28;20411;-53
2022/09/24 00:47:34;;;;;;;7.57;6.38;;;17.00;67.20;;;;;;4959866;28;20034;-50
2022/09/24 00:50:14;;;;;;;7.57;6.28;;;17.00;67.00;;;;;;4980541;28;20046;-51
2022/09/24 00:52:51;;;;;;;9.90;6.28;;;17.00;66.40;;;;;;4977626;28;20046;-54
2022/09/24 00:55:20;;;;;;;7.07;6.30;;;17.00;66.90;;;;;;4992203;28;20046;-49
2022/09/24 00:57:48;;;;;;;9.18;7.63;;;17.00;66.70;;;;;;4982667;28;20680;-52
2022/09/24 01:00:15;;;;;;;8.75;7.85;;;16.90;66.80;;;;;;4981238;28;20122;-51
2022/09/24 01:02:45;;;;;;;11.52;8.10;;;16.90;66.80;;;;;;4992531;28;20577;-50
2022/09/24 01:05:12;;;;;;;9.52;7.93;;;16.90;67.00;;;;;;4990251;28;20049;-53
2022/09/24 01:07:39;;;;;;;10.05;7.28;;;16.90;67.00;;;;;;4982691;28;20046;-51
2022/09/24 01:10:06;;;;;;;8.80;7.13;;;16.90;67.10;;;;;;4983182;28;20605;-50
2022/09/24 01:13:11;;;;;;;6.95;6.25;;;16.90;67.10;;;;;;4992008;28;20126;-54
2022/09/24 01:15:49;;;;;;;9.55;7.18;;;16.90;67.80;;;;;;4971219;28;20062;-53
2022/09/24 01:18:29;;;;;;;9.10;7.65;;;16.90;67.20;;;;;;4988025;28;20064;-51
2022/09/24 01:21:08;;;;;;;7.68;6.90;;;16.90;67.20;;;;;;4991702;28;20038;-52
2022/09/24 01:23:59;;;;;;;8.38;6.75;;;16.90;67.20;;;;;;4977636;28;20038;-53
2022/09/24 01:26:44;;;;;;;10.13;7.35;;;16.90;67.40;;;;;;4979378;28;20450;-50
2022/09/24 01:29:40;;;;;;;9.57;7.60;;;16.90;67.10;;;;;;4983178;28;20454;-52
2022/09/24 01:32:17;;;;;;;8.27;7.22;;;16.80;67.40;;;;;;4977485;28;20043;-52
2022/09/24 01:34:52;;;;;;;8.35;7.03;;;16.80;67.00;;;;;;4970827;28;20047;-51
2022/09/24 01:37:22;;;;;;;8.43;7.15;;;16.80;67.00;;;;;;4971596;28;20733;-53
2022/09/24 01:39:52;;;;;;;9.00;8.05;;;16.80;66.90;;;;;;4973309;28;20413;-50
2022/09/24 01:42:20;;;;;;;8.77;7.50;;;16.80;66.90;;;;;;4978104;28;20046;-50
2022/09/24 01:44:49;;;;;;;10.43;7.85;;;16.60;66.80;;;;;;4973452;28;20042;-52
2022/09/24 01:47:22;;;;;;;9.80;8.15;;;16.70;66.90;;;;;;4994741;28;20113;-53
2022/09/24 01:49:52;;;;;;;8.82;7.88;;;16.70;67.20;;;;;;4951306;29;20047;-52
2022/09/24 01:52:24;;;;;;;9.85;8.25;;;16.70;67.10;;;;;;4961406;28;20038;-50
2022/09/24 01:54:53;;;;;;;10.15;7.68;;;16.70;67.30;;;;;;4981368;28;20042;-51
2022/09/24 01:57:24;;;;;;;12.32;8.15;;;16.70;67.10;;;;;;4974564;28;20054;-52
2022/09/24 02:00:08;;;;;;;10.40;7.95;;;16.70;67.30;;;;;;4970853;28;20054;-50
2022/09/24 02:02:50;;;;;;;8.20;7.35;;;16.70;67.70;;;;;;4971204;28;20042;-54
2022/09/24 02:05:24;;;;;;;11.13;8.93;;;16.70;67.60;;;;;;4979670;28;20053;-52
2022/09/24 02:08:12;;;;;;;10.52;8.48;;;16.60;67.60;;;;;;4984336;28;20038;-50
2022/09/24 02:10:54;;;;;;;12.85;9.57;;;16.60;67.60;;;;;;4990968;28;20046;-51
2022/09/24 02:13:25;;;;;;;11.27;9.17;;;16.60;67.80;;;;;;4979946;28;20056;-51
2022/09/24 02:15:58;;;;;;;10.63;8.30;;;16.60;67.30;;;;;;4977547;28;20425;-50
2022/09/24 02:18:30;;;;;;;13.60;10.65;;;16.60;67.60;;;;;;4980624;28;20510;-53
2022/09/24 02:20:59;;;;;;;12.30;9.27;;;16.60;67.60;;;;;;4982850;28;20035;-53
2022/09/24 02:23:28;;;;;;;10.73;9.63;;;16.60;67.60;;;;;;4981011;28;20054;-50
2022/09/24 02:25:58;;;;;;;12.40;9.80;;;16.60;67.70;;;;;;4983572;28;20076;-55
2022/09/24 02:28:25;;;;;;;12.20;8.98;;;16.60;67.90;;;;;;4990013;28;20603;-51
2022/09/24 02:30:59;;;;;;;12.50;8.85;;;16.60;67.70;;;;;;4981054;28;20038;-53
2022/09/24 02:36:16;;;;;;;13.10;9.25;;;16.60;67.90;;;;;;4987504;28;20061;-51
2022/09/24 02:38:45;;;;;;;13.15;9.95;;;16.60;67.70;;;;;;4982366;28;20077;-52
2022/09/24 02:41:12;;;;;;;11.57;9.60;;;16.60;67.80;;;;;;4976114;28;20042;-50
2022/09/24 02:43:39;;;;;;;12.65;9.80;;;16.60;67.90;;;;;;4981809;28;20509;-49
2022/09/24 02:46:09;;;;;;;11.82;9.80;;;16.60;67.90;;;;;;4989301;28;20074;-50
2022/09/24 02:48:36;;;;;;;11.70;9.93;;;16.60;67.90;;;;;;4981374;28;20063;-50
2022/09/24 02:51:04;;;;;;;13.02;9.20;;;16.60;67.90;;;;;;4982486;28;20046;-52
2022/09/24 02:53:31;;;;;;;15.43;9.43;;;16.60;68.60;;;;;;4989072;28;20552;-52
2022/09/24 02:56:02;;;;;;;11.38;8.93;;;16.60;67.90;;;;;;4985189;28;20105;-49
2022/09/24 02:58:29;;;;;;;15.15;11.30;;;16.60;67.90;;;;;;4974691;28;20039;-50
2022/09/24 03:00:58;;;;;;;14.95;11.07;;;16.60;67.90;;;;;;4979391;28;20042;-53
2022/09/24 03:03:25;;;;;;;14.02;10.60;;;16.60;68.00;;;;;;4963597;28;20042;-52
2022/09/24 03:05:53;;;;;;;14.43;10.70;;;16.60;68.00;;;;;;4986290;28;20050;-51
2022/09/24 03:08:23;;;;;;;12.77;10.07;;;16.70;68.00;;;;;;4976541;28;20031;-51
2022/09/24 03:10:54;;;;;;;11.40;9.57;;;16.70;68.00;;;;;;4981991;28;20042;-50
2022/09/24 03:13:21;;;;;;;11.80;10.10;;;16.70;67.90;;;;;;4990248;28;20042;-52
2022/09/24 03:15:48;;;;;;;12.63;10.52;;;16.60;68.50;;;;;;5004574;23;20491;-55
2022/09/24 03:18:15;;;;;;;14.82;11.32;;;16.60;67.90;;;;;;4987065;28;20141;-51
2022/09/24 03:20:42;;;;;;;13.65;11.02;;;16.60;67.90;;;;;;4989553;28;20126;-53
2022/09/24 03:23:08;;;;;;;13.75;11.52;;;16.60;67.90;;;;;;4989396;28;20044;-50
2022/09/24 03:25:36;;;;;;;13.98;11.25;;;16.60;67.90;;;;;;4989825;28;20129;-49
2022/09/24 03:28:03;;;;;;;13.45;11.23;;;16.60;67.90;;;;;;4988991;28;20274;-50
2022/09/24 03:33:14;;;;;;;12.55;10.32;;;16.60;67.90;;;;;;4989001;28;20046;-49
2022/09/24 03:35:41;;;;;;;13.13;9.95;;;16.60;67.90;;;;;;4988332;28;20508;-49
2022/09/24 03:38:08;;;;;;;13.70;10.70;;;16.60;67.90;;;;;;4989217;28;20118;-52
2022/09/24 03:40:36;;;;;;;14.05;11.32;;;16.60;67.90;;;;;;4989279;28;20534;-51
2022/09/24 03:43:04;;;;;;;11.60;10.00;;;16.60;67.90;;;;;;4988820;28;20080;-52
2022/09/24 03:45:31;;;;;;;12.57;10.88;;;16.60;67.90;;;;;;4988062;28;20518;-49
2022/09/24 03:47:58;;;;;;;13.50;11.20;;;16.60;67.90;;;;;;4988607;28;20038;-50
2022/09/24 03:50:24;;;;;;;12.13;10.25;;;16.60;68.00;;;;;;4989108;28;20491;-51
2022/09/24 03:52:53;;;;;;;14.55;11.00;;;16.60;67.90;;;;;;4989079;28;20042;-49
2022/09/24 03:55:20;;;;;;;15.68;11.90;;;16.50;67.90;;;;;;4988369;28;20046;-50
2022/09/24 03:57:49;;;;;;;15.25;12.70;;;16.50;67.90;;;;;;4991660;28;20417;-52
2022/09/24 04:00:15;;;;;;;13.13;11.23;;;16.50;68.00;;;;;;4991897;28;20054;-49
2022/09/24 04:02:42;;;;;;;13.77;11.20;;;16.50;68.10;;;;;;4992997;28;20053;-50
2022/09/24 04:05:12;;;;;;;13.23;10.35;;;16.50;68.20;;;;;;4992604;28;20109;-50
2022/09/24 04:07:40;;;;;;;15.07;9.75;;;16.50;68.20;;;;;;4991802;28;20035;-52
2022/09/24 04:10:07;;;;;;;14.52;11.55;;;16.50;68.90;;;;;;4990699;28;20058;-50
2022/09/24 04:12:34;;;;;;;12.68;11.38;;;16.50;68.20;;;;;;4991693;28;20053;-50
2022/09/24 04:15:03;;;;;;;12.35;9.63;;;16.50;68.20;;;;;;4991621;28;20138;-50
2022/09/24 04:17:30;;;;;;;15.05;11.65;;;16.50;68.30;;;;;;4992495;28;20520;-52
2022/09/24 04:19:57;;;;;;;13.88;11.38;;;16.50;68.30;;;;;;5005208;28;20196;-51
2022/09/24 04:22:25;;;;;;;13.32;10.93;;;16.50;68.20;;;;;;5004778;28;20068;-52
2022/09/24 04:24:51;;;;;;;16.20;11.55;;;16.50;68.20;;;;;;4991281;28;20050;-53
2022/09/24 04:27:18;;;;;;;11.80;10.57;;;16.50;68.30;;;;;;4992898;28;20465;-51
2022/09/24 04:29:44;;;;;;;12.63;10.45;;;16.50;68.30;;;;;;4991143;28;20680;-50
2022/09/24 04:32:13;;;;;;;13.18;10.85;;;16.50;68.30;;;;;;5006702;28;20053;-52
2022/09/24 04:34:40;;;;;;;13.88;11.02;;;16.50;68.30;;;;;;4990553;28;20492;-53
2022/09/24 04:37:08;;;;;;;16.00;11.80;;;16.50;68.30;;;;;;4991960;28;20034;-50
2022/09/24 04:39:35;;;;;;;12.27;10.73;;;16.50;68.40;;;;;;4992276;28;20046;-50
2022/09/24 04:42:01;;;;;;;13.38;10.70;;;16.40;68.30;;;;;;4991321;28;20030;-50
2022/09/24 04:44:29;;;;;;;13.38;11.45;;;16.50;68.40;;;;;;4990264;28;20609;-54
2022/09/24 04:46:59;;;;;;;13.80;11.20;;;16.50;68.40;;;;;;4974582;28;20042;-52
2022/09/24 04:49:26;;;;;;;14.32;11.65;;;16.40;68.40;;;;;;4990854;28;20073;-54
2022/09/24 04:51:53;;;;;;;12.95;11.55;;;16.50;68.40;;;;;;4990586;28;20042;-52
2022/09/24 04:54:20;;;;;;;14.45;11.48;;;16.50;68.40;;;;;;4990392;28;20054;-50
2022/09/24 04:56:48;;;;;;;12.85;10.45;;;16.50;68.50;;;;;;4991878;28;20141;-54
2022/09/24 04:59:17;;;;;;;13.85;11.43;;;16.40;68.50;;;;;;4990934;28;20533;-54
2022/09/24 05:01:45;;;;;;;11.75;10.23;;;16.40;68.50;;;;;;4990447;28;20521;-53
2022/09/24 05:04:12;;;;;;;14.95;11.85;;;16.50;68.70;;;;;;4990287;28;20038;-54
2022/09/24 05:06:38;;;;;;;14.68;11.23;;;16.40;68.60;;;;;;4991155;28;20042;-54
2022/09/24 05:09:05;;;;;;;13.32;10.80;;;16.50;68.70;;;;;;4989528;28;20070;-54
2022/09/24 05:11:38;;;;;;;14.25;11.73;;;16.50;68.70;;;;;;4991561;28;20038;-50
2022/09/24 05:14:04;;;;;;;15.25;11.68;;;16.40;68.70;;;;;;4991251;28;20114;-52
2022/09/24 05:16:33;;;;;;;17.42;12.65;;;16.50;68.80;;;;;;4993679;28;20120;-54
2022/09/24 05:19:03;;;;;;;17.20;14.00;;;16.40;68.90;;;;;;4993225;28;20092;-54
2022/09/24 05:21:30;;;;;;;17.92;12.90;;;16.40;69.00;;;;;;4990532;28;20042;-54
2022/09/24 05:23:57;;;;;;;16.13;13.10;;;16.40;69.10;;;;;;4991487;28;20058;-54
2022/09/24 05:29:09;;;;;;;15.48;11.45;;;16.40;69.20;;;;;;4990304;28;20077;-50
2022/09/24 05:31:35;;;;;;;12.98;11.60;;;16.50;69.20;;;;;;4992091;28;20680;-51
2022/09/24 05:34:04;;;;;;;13.52;11.40;;;16.50;69.30;;;;;;4990551;28;20058;-53
2022/09/24 05:36:30;;;;;;;14.68;12.90;;;16.50;69.40;;;;;;4991373;28;20054;-52
2022/09/24 05:38:57;;;;;;;14.75;12.05;;;16.50;69.50;;;;;;4990992;28;20053;-51
2022/09/24 05:41:24;;;;;;;15.00;12.73;;;16.50;69.60;;;;;;4990549;28;20109;-53
2022/09/24 05:43:50;;;;;;;14.15;12.20;;;16.50;69.60;;;;;;4990094;28;20050;-53
2022/09/24 05:46:17;;;;;;;14.90;12.05;;;16.50;69.50;;;;;;4987630;28;20474;-53
2022/09/24 05:48:44;;;;;;;16.42;12.85;;;16.50;69.60;;;;;;4989711;28;20521;-51
2022/09/24 05:51:10;;;;;;;17.17;13.95;;;16.50;69.50;;;;;;4989948;28;20038;-55
2022/09/24 05:53:37;;;;;;;16.48;13.80;;;16.50;69.50;;;;;;4990240;28;20442;-54
2022/09/24 05:56:06;;;;;;;17.20;14.32;;;16.50;69.60;;;;;;4989789;28;20034;-54
2022/09/24 05:58:32;;;;;;;16.70;13.32;;;16.50;69.60;;;;;;4988480;28;20054;-55
2022/09/24 06:01:00;;;;;;;15.90;13.07;;;16.50;69.70;;;;;;4990032;28;20704;-53
2022/09/24 06:03:28;;;;;;;15.70;12.98;;;16.50;69.80;;;;;;4990090;28;20042;-55
2022/09/24 06:05:55;;;;;;;15.75;12.55;;;16.50;69.90;;;;;;4989425;28;20129;-55
2022/09/24 06:08:25;;;;;;;15.00;13.20;;;16.50;69.90;;;;;;4989948;28;20410;-53
2022/09/24 06:10:59;;;;;;;18.03;14.53;;;16.60;69.80;;;;;;4990180;28;20061;-54
2022/09/24 06:13:25;;;;;;;14.80;13.20;;;16.50;69.80;;;;;;4990102;28;20045;-54
2022/09/24 06:15:52;;;;;;;14.70;12.73;;;16.60;69.70;;;;;;4988685;28;20502;-51
2022/09/24 06:18:18;;;;;;;17.17;12.88;;;16.60;69.70;;;;;;4989840;28;20054;-53
2022/09/24 06:20:47;;;;;;;15.57;11.68;;;16.60;69.80;;;;;;4978097;28;20663;-54
2022/09/24 06:23:14;;;;;;;16.83;12.68;;;16.60;69.80;;;;;;4971754;28;20241;-55
2022/09/24 06:25:41;;;;;;;18.55;13.98;;;16.60;69.70;;;;;;4985233;28;20044;-55
2022/09/24 06:28:07;;;;;;;15.63;12.68;;;16.60;69.70;;;;;;4980675;28;20049;-51
2022/09/24 06:30:40;;;;;;;14.75;11.63;;;16.60;69.60;;;;;;4971808;28;20049;-52
2022/09/24 06:33:08;;;;;;;;;;;16.60;69.70;;;;;;4980198;28;20096;-52
2022/09/24 06:35:36;;;;;;;15.02;11.32;;;16.70;69.90;;;;;;4987515;28;19928;-55
2022/09/24 06:38:04;;;;;;;13.15;11.20;;;16.70;69.20;;;;;;4982021;28;20035;-51
2022/09/24 06:40:31;;;;;;;14.93;11.40;;;16.70;69.40;;;;;;4972455;28;20050;-54
2022/09/24 06:43:06;;;;;;;14.18;10.80;;;16.70;69.50;;;;;;4987862;28;20057;-53
2022/09/24 06:45:36;;;;;;;13.73;11.70;;;16.70;69.50;;;;;;4989311;28;20518;-54
2022/09/24 06:48:04;;;;;;;16.75;12.95;;;16.70;69.60;;;;;;4990821;28;20117;-55
2022/09/24 06:50:33;;;;;;;15.05;12.18;;;16.70;69.70;;;;;;4989403;28;20039;-54
2022/09/24 06:53:04;;;;;;;15.73;12.07;;;16.70;69.80;;;;;;4990626;28;20048;-55
2022/09/24 06:55:30;;;;;;;16.73;12.88;;;16.70;70.00;;;;;;4980909;28;20521;-55
2022/09/24 06:58:04;;;;;;;14.13;12.05;;;16.70;70.00;;;;;;4978861;28;20286;-54
2022/09/24 07:00:31;;;;;;;13.50;12.02;;;16.70;70.10;;;;;;4998326;28;20038;-54
2022/09/24 07:02:57;;;;;;;13.90;11.63;;;16.80;69.90;;;;;;4983255;28;20035;-55
2022/09/24 07:05:26;;;;;;;15.02;13.05;;;16.80;70.00;;;;;;4987090;28;20038;-51
2022/09/24 07:07:53;;;;;;;14.50;12.50;;;16.90;70.10;;;;;;4990967;28;20038;-54
2022/09/24 07:10:20;;;;;;;17.58;12.80;;;16.90;70.10;;;;;;4988626;28;20053;-54
2022/09/24 07:12:46;;;;;;;14.93;12.38;;;17.00;70.10;;;;;;4990929;28;20035;-54
2022/09/24 07:15:13;;;;;;;14.45;11.68;;;17.00;70.00;;;;;;4991100;28;20043;-55
2022/09/24 07:17:40;;;;;;;12.07;10.48;;;17.10;70.00;;;;;;4998086;28;20045;-53
2022/09/24 07:20:07;;;;;;;14.52;11.45;;;17.20;69.80;;;;;;4990186;28;20106;-55
2022/09/24 07:22:39;;;;;;;12.18;10.57;;;17.30;69.40;;;;;;4990901;28;20050;-53
2022/09/24 07:25:10;;;;;;;16.48;11.63;;;17.30;69.40;;;;;;4991156;28;20064;-55
2022/09/24 07:27:38;;;;;;;14.00;10.70;;;17.40;69.40;;;;;;4977950;28;20039;-55
2022/09/24 07:30:08;;;;;;;13.40;11.00;;;17.50;69.20;;;;;;4991418;28;20050;-54
2022/09/24 07:32:35;;;;;;;14.05;10.45;;;17.50;69.00;;;;;;4991064;28;20046;-55
2022/09/24 07:35:02;;;;;;;15.48;11.48;;;17.60;68.80;;;;;;4994098;28;20048;-55
2022/09/24 07:37:31;;;;;;;11.25;9.77;;;17.60;68.50;;;;;;4993878;28;20050;-54
2022/09/24 07:39:58;;;;;;;13.07;10.50;;;17.70;68.40;;;;;;4994383;28;20418;-51
2022/09/24 07:42:25;;;;;;;11.65;9.55;;;17.70;68.30;;;;;;4991960;28;20049;-53
2022/09/24 07:44:51;;;;;;;12.70;10.38;;;17.70;68.10;;;;;;4993955;28;20039;-54
2022/09/24 07:47:18;;;;;;;12.60;10.55;;;17.80;68.00;;;;;;4994327;28;20042;-55
2022/09/24 07:49:47;;;;;;;12.45;9.73;;;17.80;67.90;;;;;;4994161;28;20042;-55
2022/09/24 07:52:13;;;;;;;12.18;10.18;;;17.80;67.60;;;;;;4994705;28;20052;-55
2022/09/24 07:54:43;;;;;;;13.60;10.65;;;17.80;67.70;;;;;;4975335;28;20061;-55
2022/09/24 07:57:13;;;;;;;12.70;9.60;;;17.90;67.60;;;;;;4987320;28;20057;-52
2022/09/24 07:59:40;;;;;;;12.63;9.85;;;17.90;67.90;;;;;;4993506;28;20517;-54
2022/09/24 08:02:15;;;;;;;13.38;10.75;;;17.90;67.70;;;;;;4990103;28;20061;-53
2022/09/24 08:04:43;;;;;;;12.85;9.43;;;17.90;67.80;;;;;;4974880;28;20043;-54
2022/09/24 08:07:13;;;;;;;10.90;9.65;;;17.90;67.70;;;;;;4976266;28;20441;-55
2022/09/24 08:09:40;;;;;;;12.05;10.38;;;18.00;67.80;;;;;;4994416;28;20039;-53
2022/09/24 08:12:11;;;;;;;11.52;9.07;;;18.00;67.80;;;;;;4994700;28;20551;-52
2022/09/24 08:14:38;;;;;;;11.82;9.90;;;18.00;68.00;;;;;;4994476;28;20060;-55
2022/09/24 08:17:07;;;;;;;12.68;10.82;;;18.10;68.20;;;;;;4992507;28;20041;-55
2022/09/24 08:19:33;;;;;;;12.88;10.43;;;18.10;68.40;;;;;;4994209;28;20050;-55
2022/09/24 08:22:00;;;;;;;12.35;10.15;;;18.20;68.60;;;;;;4994196;28;20121;-54
2022/09/24 08:24:29;;;;;;;12.60;11.02;;;18.20;68.40;;;;;;4994124;28;20062;-53
2022/09/24 08:26:57;;;;;;;15.65;9.55;;;18.30;68.30;;;;;;4992196;28;20046;-52
2022/09/24 08:29:24;;;;;;;10.23;9.23;;;18.40;68.10;;;;;;4993859;28;20046;-53
2022/09/24 08:31:50;;;;;;;12.02;9.43;;;18.50;68.10;;;;;;4993621;28;20401;-53
2022/09/24 08:34:17;;;;;;;14.90;10.63;;;18.60;67.80;;;;;;4994038;28;20554;-54
2022/09/24 08:36:44;;;;;;;11.07;9.13;;;18.70;67.50;;;;;;4990304;28;20038;-52
2022/09/24 08:39:12;;;;;;;12.48;10.18;;;18.80;67.50;;;;;;4990396;28;20043;-54
2022/09/24 08:42:04;;;;;;;16.10;10.70;;;18.90;66.80;;;;;;4993690;28;20052;-53
2022/09/24 08:47:37;;;;;;;11.27;9.23;;;19.10;66.10;;;;;;4988217;28;20046;-56
2022/09/24 08:50:16;;;;;;;10.85;8.02;;;19.10;65.60;;;;;;4981628;28;20057;-51
2022/09/24 08:52:45;;;;;;;9.35;8.25;;;19.20;65.00;;;;;;4967087;28;20046;-54
2022/09/24 08:55:32;;;;;;;8.25;7.45;;;19.20;65.00;;;;;;4967486;28;20064;-55
2022/09/24 08:58:03;;;;;;;9.90;7.30;;;19.30;64.60;;;;;;4990405;28;20046;-53
2022/09/24 09:00:38;;;;;;;8.38;7.05;;;19.30;64.80;;;;;;4987859;28;20046;-53
2022/09/24 09:03:23;;;;;;;7.65;6.70;;;19.40;64.80;;;;;;4977874;28;20046;-55
2022/09/24 09:06:01;;;;;;;6.97;5.82;;;19.40;64.50;;;;;;4985179;28;20042;-55
2022/09/24 09:08:57;;;;;;;6.40;5.78;;;19.40;64.40;;;;;;4980811;28;20683;-55
2022/09/24 09:11:42;;;;;;;6.40;5.20;;;19.40;63.90;;;;;;4982240;28;20047;-53
2022/09/24 09:14:37;;;;;;;6.40;5.72;;;19.50;63.80;;;;;;4992283;28;20130;-55
2022/09/24 09:17:26;;;;;;;5.20;4.70;;;19.60;63.70;;;;;;4970643;28;20062;-55
2022/09/24 09:19:56;;;;;;;6.40;4.97;;;19.60;63.20;;;;;;5003844;28;20045;-55
2022/09/24 09:22:29;;;;;;;5.40;4.65;;;19.70;63.20;;;;;;4989366;28;20053;-56
2022/09/24 09:25:23;;;;;;;4.97;4.30;;;19.70;62.80;;;;;;4986716;28;20042;-52
2022/09/24 09:28:13;;;;;;;6.10;4.97;;;19.70;62.10;;;;;;4985041;28;20141;-55
2022/09/24 09:30:58;;;;;;;5.50;4.88;;;19.80;61.80;;;;;;4975257;28;20058;-55
2022/09/24 09:34:00;;;;;;;7.07;5.55;;;19.80;62.00;;;;;;4989382;28;20050;-55
2022/09/24 09:36:44;;;;;;;7.15;6.05;;;19.80;62.10;;;;;;4963750;28;20112;-53
2022/09/24 09:39:36;;;;;;;7.32;5.57;;;19.80;61.90;;;;;;4973652;28;20043;-55
2022/09/24 09:42:14;;;;;;;6.60;5.75;;;19.90;62.00;;;;;;4987711;28;20053;-51
2022/09/24 09:44:43;;;;;;;7.95;5.78;;;19.90;62.40;;;;;;4991451;28;20054;-51
2022/09/24 09:47:24;;;;;;;7.45;5.72;;;19.80;62.40;;;;;;4988252;28;20042;-54
2022/09/24 09:49:54;;;;;;;7.90;6.32;;;19.90;62.20;;;;;;4989975;28;20045;-56
2022/09/24 09:52:27;;;;;;;10.48;6.13;;;19.90;63.00;;;;;;4990312;28;20073;-53
2022/09/24 09:54:54;;;;;;;6.88;5.50;;;19.90;62.50;;;;;;4991542;28;20045;-55
2022/09/24 09:57:24;;;;;;;6.80;5.63;;;20.00;62.40;;;;;;4992158;28;20034;-52
2022/09/24 09:59:53;;;;;;;6.43;5.82;;;20.00;61.50;;;;;;4990103;28;20069;-54
2022/09/24 10:02:25;;;;;;;7.68;5.40;;;20.10;61.30;;;;;;4991945;28;20130;-54
2022/09/24 10:04:56;;;;;;;7.50;5.85;;;20.10;60.70;;;;;;4990778;28;20162;-55
2022/09/24 10:07:23;;;;;;;7.85;6.00;;;20.20;60.80;;;;;;4991817;28;20050;-53
2022/09/24 10:10:22;;;;;;;7.60;5.75;;;20.20;60.40;;;;;;4991211;28;20046;-52
2022/09/24 10:12:52;;;;;;;6.78;5.80;;;20.30;59.90;;;;;;4986197;28;20720;-55
2022/09/24 10:15:23;;;;;;;7.68;5.57;;;20.30;60.50;;;;;;4991224;28;20054;-56
2022/09/24 10:17:52;;;;;;;5.57;5.03;;;20.40;59.90;;;;;;4990431;28;20042;-55
2022/09/24 10:20:26;;;;;;;7.37;5.10;;;20.40;60.40;;;;;;5012606;23;20050;-49
2022/09/24 10:23:01;;;;;;;5.50;4.88;;;20.50;60.40;;;;;;4991556;28;20109;-49
2022/09/24 10:25:29;;;;;;;5.70;4.57;;;20.60;59.70;;;;;;4975019;28;20042;-48
2022/09/24 10:30:56;;;;;;;6.47;4.85;;;20.70;59.60;;;;;;4991963;28;20070;-47
2022/09/24 10:33:23;;;;;;;6.32;5.13;;;20.80;58.90;;;;;;4983027;28;20042;-49
2022/09/24 10:35:50;;;;;;;5.85;4.88;;;20.90;59.60;;;;;;4991762;28;20034;-46
2022/09/24 10:38:21;;;;;;;72.20;13.00;;;21.00;59.40;;;;;;4991578;28;20050;-50
2022/09/24 10:40:47;;;;;;;5.72;4.72;;;21.10;59.50;;;;;;4955316;28;20070;-46
2022/09/24 10:43:19;;;;;;;6.95;4.82;;;21.10;59.10;;;;;;4987219;28;20072;-45
2022/09/24 10:46:16;;;;;;;5.05;4.25;;;21.20;58.90;;;;;;4990544;28;20049;-46
2022/09/24 10:49:06;;;;;;;5.80;5.20;;;21.30;58.70;;;;;;4991131;28;20038;-43
2022/09/24 10:51:55;;;;;;;5.82;5.00;;;21.30;58.60;;;;;;4991220;28;20053;-46
2022/09/24 10:54:25;;;;;;;9.88;5.90;;;21.40;57.70;;;;;;4990793;28;20046;-46
2022/09/24 10:56:56;;;;;;;5.78;4.78;;;21.40;59.40;;;;;;4991411;28;20053;-43
2022/09/24 10:59:50;;;;;;;6.07;5.43;;;21.30;58.60;;;;;;4990843;28;20048;-44
2022/09/24 11:02:22;;;;;;;7.32;5.47;;;21.30;58.10;;;;;;4991793;28;20507;-44
2022/09/24 11:04:49;;;;;;;5.65;5.03;;;21.30;58.20;;;;;;4990214;28;20042;-49
2022/09/24 11:07:37;;;;;;;7.75;5.32;;;21.20;58.60;;;;;;4992129;28;20054;-47
2022/09/24 11:10:04;;;;;;;7.63;4.95;;;21.20;59.00;;;;;;4990300;28;20034;-44
2022/09/24 11:13:01;;;;;;;8.23;6.07;;;21.20;59.10;;;;;;4995538;28;20049;-44
2022/09/24 11:15:52;;;;;;;6.53;5.35;;;21.20;58.20;;;;;;4994680;28;20057;-47
2022/09/24 11:19:00;;;;;;;8.60;5.90;;;21.30;58.20;;;;;;4992101;28;20129;-45
2022/09/24 11:21:50;;;;;;;6.85;6.03;;;21.30;57.30;;;;;;4995240;28;20533;-45
2022/09/24 11:24:23;;;;;;;6.30;5.50;;;21.30;58.20;;;;;;4978983;28;20042;-43
2022/09/24 11:26:59;;;;;;;7.07;5.13;;;21.40;58.30;;;;;;4991446;28;20471;-45
2022/09/24 11:29:32;;;;;;;7.57;5.95;;;21.40;58.00;;;;;;4994164;28;20498;-44
2022/09/24 11:32:05;;;;;;;6.60;5.10;;;21.50;58.20;;;;;;4995057;28;20080;-45
2022/09/24 11:34:41;;;;;;;5.43;4.93;;;21.50;57.80;;;;;;4994986;28;20598;-46
2022/09/24 11:37:41;;;;;;;6.00;5.15;;;21.60;56.90;;;;;;4993549;28;20113;-45
2022/09/24 11:40:10;;;;;;;5.30;4.70;;;21.60;57.60;;;;;;4992496;28;20122;-46
2022/09/24 11:42:55;;;;;;;7.88;5.25;;;21.60;57.50;;;;;;4993897;28;20046;-45
2022/09/24 11:45:35;;;;;;;5.90;5.28;;;21.60;56.20;;;;;;4991832;28;20057;-49
2022/09/24 11:48:22;;;;;;;7.20;4.90;;;21.80;55.90;;;;;;4992820;28;20410;-47
2022/09/24 11:51:03;;;;;;;6.45;5.20;;;21.80;56.60;;;;;;4992919;28;20072;-44
2022/09/24 11:53:54;;;;;;;6.67;5.50;;;21.80;56.30;;;;;;4989259;28;20057;-49
2022/09/24 11:56:30;;;;;;;6.88;5.20;;;21.90;55.40;;;;;;4992555;28;20050;-49
2022/09/24 11:59:26;;;;;;;7.10;5.47;;;21.90;55.40;;;;;;4992815;28;20057;-50
2022/09/24 12:01:59;;;;;;;6.03;5.20;;;22.00;54.80;;;;;;4989211;28;20546;-47
2022/09/24 12:04:53;;;;;;;5.85;4.78;;;22.10;55.40;;;;;;4992154;28;20054;-51
2022/09/24 12:07:35;;;;;;;5.57;4.95;;;22.10;55.40;;;;;;4991809;28;20429;-50
2022/09/24 12:10:24;;;;;;;6.90;5.38;;;22.20;55.00;;;;;;4992561;28;20076;-54
2022/09/24 12:13:01;;;;;;;5.90;5.30;;;22.20;55.10;;;;;;4991632;28;20050;-51
2022/09/24 12:15:41;;;;;;;6.35;5.70;;;22.30;55.30;;;;;;4992368;28;20056;-49
2022/09/24 12:18:16;;;;;;;8.73;5.63;;;22.40;54.20;;;;;;4995152;28;20038;-50
2022/09/24 12:21:00;;;;;;;6.63;5.88;;;22.40;55.00;;;;;;4990112;28;20050;-52
2022/09/24 12:23:31;;;;;;;5.93;5.30;;;22.50;55.50;;;;;;4991434;28;20046;-51
2022/09/24 12:26:04;;;;;;;6.57;5.65;;;22.60;54.70;;;;;;4992467;28;20073;-48
2022/09/24 12:35:10;;;;;;;5.93;5.25;;;22.70;53.80;;;;;;4972624;28;20043;-46
2022/09/24 12:37:40;;;;;;;8.65;6.32;;;22.80;53.10;;;;;;4980119;28;20086;-50
2022/09/24 12:40:13;;;;;;;6.30;5.22;;;22.80;53.30;;;;;;4990162;28;20042;-49
2022/09/24 12:42:47;;;;;;;5.13;4.65;;;22.80;53.70;;;;;;4992931;28;20418;-48
2022/09/24 12:45:21;;;;;;;6.32;5.38;;;22.80;53.00;;;;;;4993637;28;20064;-51
2022/09/24 12:47:58;;;;;;;;;;;22.80;53.00;;;;;;4993530;28;20068;-48
2022/09/24 12:50:33;;;;;;;6.35;5.07;;;22.90;53.90;;;;;;4992169;28;19980;-47
2022/09/24 12:53:23;;;;;;;6.63;6.00;;;22.90;53.40;;;;;;4988231;28;20109;-46
2022/09/24 12:55:51;;;;;;;6.70;6.00;;;22.90;53.20;;;;;;4983293;28;20517;-47
2022/09/24 12:58:42;;;;;;;6.22;5.47;;;22.90;53.70;;;;;;4990562;28;20047;-46
2022/09/24 13:01:29;;;;;;;6.57;5.82;;;23.00;52.80;;;;;;4989069;28;20047;-47
2022/09/24 13:04:24;;;;;;;7.13;6.05;;;23.00;52.90;;;;;;4986426;28;20407;-45
2022/09/24 13:06:51;;;;;;;7.18;5.78;;;23.10;53.40;;;;;;4993367;28;20049;-49
2022/09/24 13:09:39;;;;;;;7.65;6.60;;;23.10;53.00;;;;;;4992496;28;20038;-45
2022/09/24 13:12:31;;;;;;;6.15;5.55;;;23.20;52.20;;;;;;4988429;28;20491;-46
2022/09/24 13:15:03;;;;;;;5.97;5.10;;;23.30;52.60;;;;;;4985239;28;20069;-47
2022/09/24 13:17:32;;;;;;;6.00;5.20;;;23.30;52.30;;;;;;4987407;28;20510;-49
2022/09/24 13:20:25;;;;;;;7.18;5.70;;;23.30;52.20;;;;;;4992843;28;20410;-46
2022/09/24 13:22:58;;;;;;;;;;;23.20;51.70;;;;;;4986623;28;20129;-51
2022/09/24 13:25:26;;;;;;;6.30;4.65;;;23.20;52.60;;;;;;4992502;28;19922;-46
2022/09/24 13:28:18;;;;;;;5.50;4.97;;;23.10;52.30;;;;;;4988582;28;20053;-48